Hovedside
METAR-TAF:

METAR-TAF

Lufthavner :

N'Djamena internasjonale lufthavn

N'Djamena, Tsjad

breddegrad: 12-08N, lengdegrad: 015-02E, høyde over havet: 295 m

Gjeldene værobservasjon

Denne rapporten ble laget for 32 minutter siden, klokken 11:00 UTC
Vind 7 kt fra Sør, skiftende mellom Sør og Vest
Temperatur 31°C
Luftfuktighet 66%
Trykk 1011 hPa
Sikt 10 km eller mer
Få skyer i en høyde av 3000 ft

METAR: FTTJ 201100Z 19007KT 190V270 9999 FEW030 31/24 Q1011 NOSIG

Tid: 12:32 (11:32 UTC)

Varsel

Denne rapporten ble laget for 6 timer og 32 minutter siden, klokken 05:00 UTC
Varsel gyldig fra 20. klokken 06 UTC til 21. klokken 12 UTC
Vind 6 kt fra Sør-sørøst
Sikt 10 km eller mer
Få skyer i en høyde av 3000 ft
Midlertidig
fra 20. klokken 13 UTC til 20. klokken 19 UTC
Vind 20 kt fra skiftende retning med vindkast opp mot 30 kt
Sikt: 4000 m
torden, regn

TAF: FTTJ 200500Z 2006/2112 16006KT 9999 FEW030 TEMPO 2013/2019 VRB20G30KT 4000 TSRA

Værobservasjoner og værvarsel for over 4000 flyplasser (METAR- og TAF-rapporter).

Tilgjengelige stasjoner er representert av de røde og gule prikkene på kartet.

Hold musepekeren over prikken for å se navnet på stasjonen.

Klikk så for å se værobservasjoner og -varsler.

For å forandre kartet kan du klikke på den grønne knappen med svart kryss for å zoome inn, på den grønne knappen med strek for å zoome ut, eller på de grønne pilene for å se tilstøtende kart.


METAR-TAF: